EDT,Max TemperatureF,Mean TemperatureF,Min TemperatureF,Max Dew PointF,MeanDew PointF,Min DewpointF,Max Humidity, Mean Humidity, Min Humidity, Max Sea Level PressureIn, Mean Sea Level PressureIn, Min Sea Level PressureIn, Max VisibilityMiles, Mean VisibilityMiles, Min VisibilityMiles, Max Wind SpeedMPH, Mean Wind SpeedMPH, Max Gust SpeedMPH,PrecipitationIn, CloudCover, Events, WindDirDegrees
2013-7-1,78,70,62,68,65,63,100,88,57,29.95,29.88,29.83,10,9,1,8,2,,0.18,4,Rain,92
2013-7-2,80,71,62,68,65,63,100,88,58,30.08,30.01,29.94,10,8,0,8,2,29,0.44,5,Fog-Rain,178
2013-7-3,77,72,66,72,69,66,100,90,74,30.18,30.14,30.07,10,9,3,8,2,,0.02,4,Rain,213
2013-7-4,73,68,64,72,67,64,100,94,83,30.21,30.17,30.12,10,9,2,10,5,,1.20,7,Rain,173
2013-7-5,77,70,64,72,68,64,100,94,78,30.20,30.16,30.13,10,9,2,12,4,16,0.43,7,Rain,199
2013-7-6,73,70,68,72,68,64,100,95,83,30.20,30.16,30.12,10,10,4,12,4,16,0.26,6,Rain,206
2013-7-7,80,72,64,70,67,64,100,86,58,30.18,30.14,30.09,10,10,5,10,4,,0.23,5,Rain,244
2013-7-8,86,75,64,72,68,64,100,81,51,30.21,30.17,30.12,10,10,7,8,4,,0.00,1,,244
2013-7-9,87,79,71,73,71,68,94,78,55,30.17,30.13,30.07,10,10,10,9,5,16,0.00,2,,249
2013-7-10,87,78,69,75,72,68,100,86,62,30.08,30.01,29.92,10,9,2,17,6,29,0.18,4,Rain,243
2013-7-11,80,74,68,70,68,66,100,88,61,30.03,30.00,29.96,10,8,0,10,2,18,0.54,6,Fog-Rain,36
2013-7-12,78,68,59,64,59,55,94,74,47,30.10,30.06,30.03,10,10,10,12,5,17,0.00,1,,46
2013-7-13,80,70,60,70,64,59,94,82,65,30.16,30.11,30.06,10,10,10,12,5,16,0.00,2,Rain,74
2013-7-14,87,78,69,75,70,66,94,78,55,30.27,30.20,30.15,10,10,10,10,5,,0.00,2,Rain,131
2013-7-15,87,78,68,70,68,66,94,70,49,30.36,30.31,30.27,10,8,0,9,4,,0.00,1,Fog,155
2013-7-16,89,78,66,73,70,66,100,77,49,30.38,30.34,30.30,10,10,10,6,0,,0.00,0,,33
2013-7-17,89,79,69,79,73,70,100,83,55,30.36,30.31,30.24,10,9,3,7,1,,0.00,1,Rain,58
2013-7-18,91,81,71,79,73,68,100,83,52,30.26,30.19,30.10,10,7,0,15,2,21,0.44,4,Fog-Rain,284
2013-7-19,87,78,69,75,72,70,100,84,62,30.12,30.06,29.99,10,9,4,12,4,17,0.00,1,Rain,241
2013-7-20,87,79,71,73,72,70,100,80,55,30.02,29.98,29.92,10,10,7,14,6,18,0.00,1,,252
2013-7-21,82,76,69,73,70,68,100,84,62,30.02,29.97,29.93,10,10,3,9,4,,0.24,4,Rain,248
2013-7-22,77,73,69,73,71,70,100,95,83,29.99,29.90,29.83,10,8,0,9,4,18,2.41,6,Rain,244
2013-7-23,86,77,68,73,70,64,100,86,58,29.91,29.87,29.81,10,8,2,14,6,21,0.20,4,Rain,267
2013-7-24,77,70,64,70,64,59,100,81,61,29.99,29.92,29.84,10,10,7,8,5,,0.00,5,,15
2013-7-25,77,68,59,61,59,55,100,76,47,30.12,30.06,30.00,10,10,7,9,4,,0.00,2,,53
2013-7-26,78,66,53,66,60,54,100,78,54,30.13,30.08,30.03,10,10,5,8,1,,0.00,1,,198
2013-7-27,75,70,64,68,65,63,100,87,69,30.03,29.97,29.91,10,10,5,9,3,,0.01,6,Rain,257
2013-7-28,73,64,55,63,54,48,100,71,43,30.12,30.04,29.95,10,10,10,8,4,,0.00,2,,306
2013-7-29,78,66,53,63,57,52,100,76,47,30.23,30.18,30.12,10,10,10,9,4,,0.00,2,,248
2013-7-30,77,68,59,64,61,59,100,81,57,30.27,30.22,30.18,10,10,10,7,3,,0.00,0,Rain,221
2013-7-31,73,68,64,68,66,63,100,92,78,30.19,30.09,30.00,10,10,5,10,2,,0.10,8,Rain,214